createdAt,value
2023-05-02T00:00:46.654Z,1005.82
2023-05-02T00:01:46.773Z,1005.78
2023-05-02T00:02:46.946Z,1005.75
2023-05-02T00:03:46.160Z,1005.81
2023-05-02T00:04:46.040Z,1005.82
2023-05-02T00:05:46.058Z,1005.83
2023-05-02T00:06:46.148Z,1005.82
2023-05-02T00:07:46.014Z,1005.82
2023-05-02T00:08:46.148Z,1005.79
2023-05-02T00:09:46.242Z,1005.82
2023-05-02T00:10:46.298Z,1005.88
2023-05-02T00:11:46.341Z,1005.84
2023-05-02T00:12:46.392Z,1005.78
2023-05-02T00:13:46.461Z,1005.81
2023-05-02T00:14:46.516Z,1005.86
2023-05-02T00:15:46.573Z,1005.83
2023-05-02T00:16:46.070Z,1005.84
2023-05-02T00:17:46.757Z,1005.86
2023-05-02T00:18:46.069Z,1005.85
2023-05-02T00:19:45.933Z,1005.89
2023-05-02T00:20:46.928Z,1005.86
2023-05-02T00:21:46.872Z,1005.88
2023-05-02T00:22:46.762Z,1005.83
2023-05-02T00:23:46.914Z,1005.82
2023-05-02T00:24:46.574Z,1005.91
2023-05-02T00:25:46.665Z,1005.94
2023-05-02T00:26:46.884Z,1005.91
2023-05-02T00:27:46.986Z,1005.88
2023-05-02T00:28:46.901Z,1005.87
2023-05-02T00:29:46.848Z,1005.86
2023-05-02T00:30:47.048Z,1005.90
2023-05-02T00:31:46.910Z,1005.91
2023-05-02T00:32:46.003Z,1005.93
2023-05-02T00:33:45.839Z,1005.87
2023-05-02T00:34:45.874Z,1005.94
2023-05-02T00:35:45.827Z,1005.93
2023-05-02T00:36:45.855Z,1005.95
2023-05-02T00:37:45.821Z,1005.89
2023-05-02T00:38:45.816Z,1005.95
2023-05-02T00:39:45.802Z,1005.95
2023-05-02T00:40:45.822Z,1005.95
2023-05-02T00:41:45.837Z,1005.96
2023-05-02T00:42:45.837Z,1005.93
2023-05-02T00:43:45.863Z,1005.96
2023-05-02T00:44:45.899Z,1005.95
2023-05-02T00:45:45.895Z,1005.97
2023-05-02T00:46:45.944Z,1005.95
2023-05-02T00:47:45.974Z,1005.95
2023-05-02T00:48:45.914Z,1005.98
2023-05-02T00:49:46.086Z,1005.98
2023-05-02T00:50:46.098Z,1005.99
2023-05-02T00:51:46.100Z,1005.96
2023-05-02T00:52:46.097Z,1005.92
2023-05-02T00:53:46.105Z,1005.95
2023-05-02T00:54:46.117Z,1005.97
2023-05-02T00:55:46.117Z,1005.98
2023-05-02T00:56:46.135Z,1005.91
2023-05-02T00:57:46.127Z,1006.05
2023-05-02T00:58:46.115Z,1006.01
2023-05-02T00:59:46.153Z,1005.95
2023-05-02T01:00:45.886Z,1006.00
2023-05-02T01:01:46.192Z,1005.98
2023-05-02T01:02:46.239Z,1006.00
2023-05-02T01:03:45.711Z,1006.02
2023-05-02T01:04:45.624Z,1006.02
2023-05-02T01:05:45.657Z,1006.07
2023-05-02T01:06:45.808Z,1006.05
2023-05-02T01:07:45.601Z,1006.04
2023-05-02T01:08:45.620Z,1006.09
2023-05-02T01:09:45.930Z,1006.11
2023-05-02T01:10:45.605Z,1006.12
2023-05-02T01:11:45.612Z,1006.13
2023-05-02T01:12:45.629Z,1006.15
2023-05-02T01:13:45.626Z,1006.18
2023-05-02T01:14:45.652Z,1006.17
2023-05-02T01:15:45.662Z,1006.19
2023-05-02T01:16:45.805Z,1006.10
2023-05-02T01:17:45.682Z,1006.18
2023-05-02T01:18:45.556Z,1006.14
2023-05-02T01:19:45.551Z,1006.17
2023-05-02T01:20:45.682Z,1006.15
2023-05-02T01:21:45.679Z,1006.16
2023-05-02T01:22:45.688Z,1006.15
2023-05-02T01:23:45.692Z,1006.15
2023-05-02T01:24:45.499Z,1006.15
2023-05-02T01:25:45.712Z,1006.14
2023-05-02T01:26:45.729Z,1006.18
2023-05-02T01:27:45.722Z,1006.17
2023-05-02T01:28:45.736Z,1006.19
2023-05-02T01:29:45.732Z,1006.22
2023-05-02T01:30:45.544Z,1006.21
2023-05-02T01:31:45.471Z,1006.24
2023-05-02T01:32:45.511Z,1006.22
2023-05-02T01:33:45.557Z,1006.28
2023-05-02T01:34:45.573Z,1006.27
2023-05-02T01:35:45.443Z,1006.28
2023-05-02T01:36:45.602Z,1006.27
2023-05-02T01:37:45.424Z,1006.30
2023-05-02T01:38:45.417Z,1006.22
2023-05-02T01:39:45.412Z,1006.31
2023-05-02T01:40:45.422Z,1006.27
2023-05-02T01:41:45.428Z,1006.30
2023-05-02T01:42:45.649Z,1006.35
2023-05-02T01:43:45.654Z,1006.34
2023-05-02T01:44:45.658Z,1006.32
2023-05-02T01:45:45.695Z,1006.37
2023-05-02T01:46:45.702Z,1006.36
2023-05-02T01:47:45.773Z,1006.34
2023-05-02T01:48:45.706Z,1006.39
2023-05-02T01:49:45.903Z,1006.40
2023-05-02T01:50:45.904Z,1006.38
2023-05-02T01:51:45.916Z,1006.43
2023-05-02T01:52:45.915Z,1006.41
2023-05-02T01:53:45.362Z,1006.42
2023-05-02T01:54:45.502Z,1006.40
2023-05-02T01:55:45.919Z,1006.41
2023-05-02T01:56:46.143Z,1006.41
2023-05-02T01:57:46.145Z,1006.47
2023-05-02T01:58:46.150Z,1006.47
2023-05-02T01:59:46.152Z,1006.43
2023-05-02T02:00:45.452Z,1006.43
2023-05-02T02:01:45.376Z,1006.43
2023-05-02T02:02:45.319Z,1006.47
2023-05-02T02:03:45.344Z,1006.43
2023-05-02T02:04:45.573Z,1006.49
2023-05-02T02:05:45.403Z,1006.50
2023-05-02T02:06:45.570Z,1006.52
2023-05-02T02:07:45.390Z,1006.53
2023-05-02T02:08:45.380Z,1006.50
2023-05-02T02:09:45.411Z,1006.57
2023-05-02T02:10:45.417Z,1006.60
2023-05-02T02:11:45.418Z,1006.63
2023-05-02T02:12:45.434Z,1006.66
2023-05-02T02:13:45.429Z,1006.66
2023-05-02T02:14:45.444Z,1006.62
2023-05-02T02:15:45.246Z,1006.69
2023-05-02T02:16:45.493Z,1006.76
2023-05-02T02:17:45.146Z,1006.79
2023-05-02T02:18:45.400Z,1006.80
2023-05-02T02:19:45.471Z,1006.85
2023-05-02T02:20:45.474Z,1006.86
2023-05-02T02:21:45.487Z,1006.87
2023-05-02T02:22:45.116Z,1006.85
2023-05-02T02:23:45.497Z,1006.86
2023-05-02T02:24:45.510Z,1006.88
2023-05-02T02:25:45.513Z,1006.89
2023-05-02T02:26:45.516Z,1006.91
2023-05-02T02:27:45.542Z,1006.94
2023-05-02T02:28:45.132Z,1006.95
2023-05-02T02:29:45.069Z,1006.94
2023-05-02T02:30:45.184Z,1006.95
2023-05-02T02:31:45.049Z,1007.00
2023-05-02T02:32:45.343Z,1007.01
2023-05-02T02:33:45.370Z,1007.02
2023-05-02T02:34:45.422Z,1006.98
2023-05-02T02:35:45.183Z,1006.98
2023-05-02T02:36:45.186Z,1007.01
2023-05-02T02:37:45.193Z,1006.98
2023-05-02T02:38:45.206Z,1006.99
2023-05-02T02:39:45.202Z,1007.03
2023-05-02T02:40:45.227Z,1007.04
2023-05-02T02:41:45.427Z,1007.07
2023-05-02T02:42:45.432Z,1007.14
2023-05-02T02:43:45.443Z,1007.11
2023-05-02T02:44:45.451Z,1007.13
2023-05-02T02:45:45.473Z,1007.15
2023-05-02T02:46:45.755Z,1007.13
2023-05-02T02:47:45.113Z,1007.12
2023-05-02T02:48:45.730Z,1007.17
2023-05-02T02:49:45.332Z,1007.18
2023-05-02T02:50:44.953Z,1007.22
2023-05-02T02:51:44.898Z,1007.26
2023-05-02T02:52:44.874Z,1007.21
2023-05-02T02:53:45.820Z,1007.26
2023-05-02T02:54:45.502Z,1007.22
2023-05-02T02:55:45.887Z,1007.26
2023-05-02T02:56:44.916Z,1007.28
2023-05-02T02:57:44.935Z,1007.29
2023-05-02T02:58:44.844Z,1007.26
2023-05-02T02:59:44.899Z,1007.32
2023-05-02T03:00:44.999Z,1007.32
2023-05-02T03:01:44.981Z,1007.35
2023-05-02T03:02:44.994Z,1007.34
2023-05-02T03:03:45.020Z,1007.33
2023-05-02T03:04:44.963Z,1007.35
2023-05-02T03:05:44.989Z,1007.40
2023-05-02T03:06:44.828Z,1007.42
2023-05-02T03:07:44.991Z,1007.40
2023-05-02T03:08:44.988Z,1007.44
2023-05-02T03:09:45.085Z,1007.41
2023-05-02T03:10:45.001Z,1007.40
2023-05-02T03:11:44.804Z,1007.41
2023-05-02T03:12:45.014Z,1007.42
2023-05-02T03:13:45.024Z,1007.41
2023-05-02T03:14:45.029Z,1007.41
2023-05-02T03:15:45.068Z,1007.44
2023-05-02T03:16:45.156Z,1007.35
2023-05-02T03:17:44.912Z,1007.41
2023-05-02T03:18:44.796Z,1007.42
2023-05-02T03:19:45.071Z,1007.46
2023-05-02T03:20:45.275Z,1007.45
2023-05-02T03:21:45.288Z,1007.47
2023-05-02T03:22:45.290Z,1007.44
2023-05-02T03:23:44.690Z,1007.41
2023-05-02T03:24:44.698Z,1007.46
2023-05-02T03:25:44.714Z,1007.46
2023-05-02T03:26:44.666Z,1007.45
2023-05-02T03:27:44.737Z,1007.47
2023-05-02T03:28:44.713Z,1007.56
2023-05-02T03:29:44.725Z,1007.55
2023-05-02T03:30:44.761Z,1007.53
2023-05-02T03:31:44.784Z,1007.48
2023-05-02T03:32:44.832Z,1007.48
2023-05-02T03:33:44.965Z,1007.51
2023-05-02T03:34:44.966Z,1007.50
2023-05-02T03:35:44.973Z,1007.56
2023-05-02T03:36:44.999Z,1007.55
2023-05-02T03:37:45.507Z,1007.54
2023-05-02T03:38:44.986Z,1007.55
2023-05-02T03:39:45.204Z,1007.54
2023-05-02T03:40:45.209Z,1007.49
2023-05-02T03:41:44.806Z,1007.51
2023-05-02T03:42:45.015Z,1007.56
2023-05-02T03:43:45.250Z,1007.53
2023-05-02T03:44:45.448Z,1007.56
2023-05-02T03:45:47.574Z,1007.51
2023-05-02T03:46:45.368Z,1007.55
2023-05-02T03:47:44.864Z,1007.61
2023-05-02T03:48:45.424Z,1007.56
2023-05-02T03:49:44.654Z,1007.61
2023-05-02T03:50:44.649Z,1007.62
2023-05-02T03:51:45.283Z,1007.63
2023-05-02T03:52:44.492Z,1007.66
2023-05-02T03:53:44.521Z,1007.67
2023-05-02T03:54:44.520Z,1007.67
2023-05-02T03:55:44.510Z,1007.63
2023-05-02T03:56:44.570Z,1007.62
2023-05-02T03:57:44.622Z,1007.68
2023-05-02T03:58:44.724Z,1007.68
2023-05-02T03:59:44.515Z,1007.68
2023-05-02T04:00:44.813Z,1007.68
2023-05-02T04:01:44.586Z,1007.64
2023-05-02T04:02:45.071Z,1007.68
2023-05-02T04:03:45.099Z,1007.68
2023-05-02T04:04:44.679Z,1007.64
2023-05-02T04:05:44.959Z,1007.67
2023-05-02T04:06:45.193Z,1007.75
2023-05-02T04:07:44.569Z,1007.71
2023-05-02T04:08:44.566Z,1007.73
2023-05-02T04:09:44.576Z,1007.74
2023-05-02T04:10:44.601Z,1007.70
2023-05-02T04:11:45.254Z,1007.69
2023-05-02T04:12:44.407Z,1007.74
2023-05-02T04:13:44.399Z,1007.77
2023-05-02T04:14:44.619Z,1007.78
2023-05-02T04:15:44.861Z,1007.77
2023-05-02T04:16:45.323Z,1007.81
2023-05-02T04:17:44.886Z,1007.83
2023-05-02T04:18:45.072Z,1007.81
2023-05-02T04:19:45.246Z,1007.81
2023-05-02T04:20:44.465Z,1007.85
2023-05-02T04:21:44.290Z,1007.86
2023-05-02T04:22:44.374Z,1007.90
2023-05-02T04:23:44.307Z,1007.90
2023-05-02T04:24:44.289Z,1007.91
2023-05-02T04:25:44.372Z,1007.94
2023-05-02T04:26:44.330Z,1007.92
2023-05-02T04:27:44.316Z,1007.88
2023-05-02T04:28:44.355Z,1007.91
2023-05-02T04:29:44.681Z,1007.95
2023-05-02T04:30:44.339Z,1007.98
2023-05-02T04:31:44.619Z,1007.94
2023-05-02T04:32:44.361Z,1007.96
2023-05-02T04:33:44.759Z,1007.96
2023-05-02T04:34:44.744Z,1008.00
2023-05-02T04:35:44.549Z,1008.00
2023-05-02T04:36:44.545Z,1008.05
2023-05-02T04:37:44.316Z,1008.05
2023-05-02T04:38:44.987Z,1008.08
2023-05-02T04:39:44.771Z,1008.12
2023-05-02T04:40:44.585Z,1008.08
2023-05-02T04:41:44.788Z,1008.12
2023-05-02T04:42:45.085Z,1008.09
2023-05-02T04:43:44.998Z,1008.08
2023-05-02T04:44:45.155Z,1008.06
2023-05-02T04:45:44.432Z,1008.13
2023-05-02T04:46:45.166Z,1008.15
2023-05-02T04:47:45.242Z,1008.14
2023-05-02T04:48:44.093Z,1008.15
2023-05-02T04:49:44.262Z,1008.16
2023-05-02T04:50:44.084Z,1008.20
2023-05-02T04:51:44.087Z,1008.23
2023-05-02T04:52:45.551Z,1008.26
2023-05-02T04:53:44.167Z,1008.22
2023-05-02T04:54:44.247Z,1008.25
2023-05-02T04:55:44.078Z,1008.21
2023-05-02T04:56:44.269Z,1008.24
2023-05-02T04:57:44.276Z,1008.29
2023-05-02T04:58:44.295Z,1008.28
2023-05-02T04:59:44.291Z,1008.33
2023-05-02T05:00:44.297Z,1008.39
2023-05-02T05:01:44.318Z,1008.43
2023-05-02T05:02:44.152Z,1008.49
2023-05-02T05:03:44.338Z,1008.49
2023-05-02T05:04:44.323Z,1008.47
2023-05-02T05:05:44.371Z,1008.52
2023-05-02T05:06:44.364Z,1008.53
2023-05-02T05:07:43.992Z,1008.50
2023-05-02T05:08:44.177Z,1008.47
2023-05-02T05:09:43.956Z,1008.53
2023-05-02T05:10:44.361Z,1008.51
2023-05-02T05:11:44.369Z,1008.51
2023-05-02T05:12:44.168Z,1008.56
2023-05-02T05:13:44.386Z,1008.55
2023-05-02T05:14:44.398Z,1008.59
2023-05-02T05:15:44.547Z,1008.60
2023-05-02T05:16:44.518Z,1008.59
2023-05-02T05:17:44.478Z,1008.63
2023-05-02T05:18:44.425Z,1008.62
2023-05-02T05:19:43.881Z,1008.71
2023-05-02T05:20:43.888Z,1008.64
2023-05-02T05:21:43.861Z,1008.66
2023-05-02T05:22:44.029Z,1008.67
2023-05-02T05:23:43.930Z,1008.67
2023-05-02T05:24:43.858Z,1008.71
2023-05-02T05:25:45.776Z,1008.71
2023-05-02T05:26:43.854Z,1008.75
2023-05-02T05:27:43.874Z,1008.70
2023-05-02T05:28:43.869Z,1008.69
2023-05-02T05:29:43.885Z,1008.75
2023-05-02T05:30:43.898Z,1008.75
2023-05-02T05:31:43.970Z,1008.78
2023-05-02T05:32:43.968Z,1008.77
2023-05-02T05:33:43.932Z,1008.77
2023-05-02T05:34:43.917Z,1008.79
2023-05-02T05:35:43.922Z,1008.85
2023-05-02T05:36:43.784Z,1008.86
2023-05-02T05:37:43.890Z,1008.82
2023-05-02T05:38:43.747Z,1008.88
2023-05-02T05:39:43.943Z,1008.86
2023-05-02T05:40:43.995Z,1008.94
2023-05-02T05:41:44.011Z,1008.86
2023-05-02T05:42:44.009Z,1008.91
2023-05-02T05:43:43.862Z,1008.86
2023-05-02T05:44:44.036Z,1008.94
2023-05-02T05:45:44.029Z,1008.91
2023-05-02T05:46:44.049Z,1008.96
2023-05-02T05:47:44.219Z,1009.00
2023-05-02T05:48:44.208Z,1008.98
2023-05-02T05:49:44.222Z,1009.00
2023-05-02T05:50:43.682Z,1009.00
2023-05-02T05:51:43.708Z,1008.99
2023-05-02T05:52:43.874Z,1009.02
2023-05-02T05:53:43.856Z,1009.02
2023-05-02T05:54:43.936Z,1009.08
2023-05-02T05:55:44.001Z,1009.07
2023-05-02T05:56:44.062Z,1009.12
2023-05-02T05:57:44.127Z,1009.13
2023-05-02T05:58:43.637Z,1009.16
2023-05-02T05:59:43.929Z,1009.14
2023-05-02T06:00:44.143Z,1009.14
2023-05-02T06:01:44.301Z,1009.13
2023-05-02T06:02:44.410Z,1009.22
2023-05-02T06:03:43.910Z,1009.17
2023-05-02T06:04:43.945Z,1009.18
2023-05-02T06:05:44.124Z,1009.18
2023-05-02T06:06:44.387Z,1009.19
2023-05-02T06:07:43.864Z,1009.18
2023-05-02T06:08:43.931Z,1009.23
2023-05-02T06:09:43.553Z,1009.15
2023-05-02T06:10:43.556Z,1009.24
2023-05-02T06:11:44.222Z,1009.23
2023-05-02T06:12:43.529Z,1009.27
2023-05-02T06:13:43.653Z,1009.24
2023-05-02T06:14:43.584Z,1009.31
2023-05-02T06:15:44.387Z,1009.32
2023-05-02T06:16:43.780Z,1009.30
2023-05-02T06:17:43.550Z,1009.25
2023-05-02T06:18:43.487Z,1009.30
2023-05-02T06:19:43.492Z,1009.29
2023-05-02T06:20:43.486Z,1009.29
2023-05-02T06:21:43.545Z,1009.33
2023-05-02T06:22:43.498Z,1009.38
2023-05-02T06:23:43.464Z,1009.32
2023-05-02T06:24:43.465Z,1009.37
2023-05-02T06:25:43.458Z,1009.40
2023-05-02T06:26:43.587Z,1009.42
2023-05-02T06:27:43.555Z,1009.40
2023-05-02T06:28:43.411Z,1009.44
2023-05-02T06:29:43.580Z,1009.39
2023-05-02T06:30:43.595Z,1009.45
2023-05-02T06:31:43.641Z,1009.44
2023-05-02T06:32:43.401Z,1009.45
2023-05-02T06:33:43.632Z,1009.52
2023-05-02T06:34:43.369Z,1009.47
2023-05-02T06:35:43.381Z,1009.52
2023-05-02T06:36:43.381Z,1009.59
2023-05-02T06:37:43.430Z,1009.58
2023-05-02T06:38:43.484Z,1009.63
2023-05-02T06:39:43.654Z,1009.63
2023-05-02T06:40:43.694Z,1009.63
2023-05-02T06:41:43.409Z,1009.71
2023-05-02T06:42:43.739Z,1009.71
2023-05-02T06:43:43.723Z,1009.68
2023-05-02T06:44:43.330Z,1009.74
2023-05-02T06:45:43.670Z,1009.77
2023-05-02T06:46:43.792Z,1009.80
2023-05-02T06:47:43.390Z,1009.83
2023-05-02T06:48:43.312Z,1009.85
2023-05-02T06:49:43.324Z,1009.89
2023-05-02T06:50:43.405Z,1009.89
2023-05-02T06:51:43.456Z,1009.86
2023-05-02T06:52:43.935Z,1009.94
2023-05-02T06:53:43.671Z,1009.96
2023-05-02T06:54:43.403Z,1009.98
2023-05-02T06:55:43.663Z,1010.01
2023-05-02T06:56:43.747Z,1010.10
2023-05-02T06:57:43.321Z,1010.09
2023-05-02T06:58:43.651Z,1010.06
2023-05-02T06:59:43.981Z,1010.07
2023-05-02T07:00:43.296Z,1010.09
2023-05-02T07:01:43.224Z,1010.11
2023-05-02T07:02:43.968Z,1010.15
2023-05-02T07:03:43.210Z,1010.16
2023-05-02T07:04:43.741Z,1010.15
2023-05-02T07:05:43.806Z,1010.10
2023-05-02T07:06:43.453Z,1010.10
2023-05-02T07:07:43.168Z,1010.11
2023-05-02T07:08:43.722Z,1010.12
2023-05-02T07:09:44.035Z,1010.10
2023-05-02T07:10:43.336Z,1010.14
2023-05-02T07:11:43.650Z,1010.13
2023-05-02T07:12:43.965Z,1010.19
2023-05-02T07:13:43.181Z,1010.22
2023-05-02T07:14:43.106Z,1010.23
2023-05-02T07:15:43.420Z,1010.24
2023-05-02T07:16:43.242Z,1010.32
2023-05-02T07:17:43.696Z,1010.25
2023-05-02T07:18:43.820Z,1010.29
2023-05-02T07:19:45.373Z,1010.31
2023-05-02T07:20:43.176Z,1010.29
2023-05-02T07:21:43.228Z,1010.26
2023-05-02T07:22:43.092Z,1010.30
2023-05-02T07:23:43.285Z,1010.27
2023-05-02T07:24:43.317Z,1010.28
2023-05-02T07:25:43.386Z,1010.31
2023-05-02T07:26:43.261Z,1010.36
2023-05-02T07:27:43.482Z,1010.34
2023-05-02T07:28:43.153Z,1010.36
2023-05-02T07:29:43.181Z,1010.33
2023-05-02T07:30:43.494Z,1010.34
2023-05-02T07:31:43.707Z,1010.35
2023-05-02T07:32:43.106Z,1010.35
2023-05-02T07:33:42.984Z,1010.31
2023-05-02T07:34:43.752Z,1010.42
2023-05-02T07:35:43.017Z,1010.44
2023-05-02T07:36:43.356Z,1010.46
2023-05-02T07:37:43.087Z,1010.42
2023-05-02T07:38:42.950Z,1010.40
2023-05-02T07:39:43.355Z,1010.41
2023-05-02T07:40:43.671Z,1010.35
2023-05-02T07:41:43.782Z,1010.36
2023-05-02T07:42:43.174Z,1010.47
2023-05-02T07:43:43.504Z,1010.41
2023-05-02T07:44:43.019Z,1010.44
2023-05-02T07:45:42.960Z,1010.44
2023-05-02T07:46:43.051Z,1010.45
2023-05-02T07:47:42.964Z,1010.53
2023-05-02T07:48:43.049Z,1010.48
2023-05-02T07:49:43.043Z,1010.41
2023-05-02T07:50:43.153Z,1010.55
2023-05-02T07:51:42.930Z,1010.52
2023-05-02T07:52:42.845Z,1010.45
2023-05-02T07:53:43.254Z,1010.53
2023-05-02T07:54:42.953Z,1010.55
2023-05-02T07:55:43.171Z,1010.62
2023-05-02T07:56:43.402Z,1010.63
2023-05-02T07:57:43.425Z,1010.64
2023-05-02T07:58:43.169Z,1010.65
2023-05-02T07:59:43.427Z,1010.66
2023-05-02T08:00:43.640Z,1010.66
2023-05-02T08:01:42.904Z,1010.69
2023-05-02T08:02:43.127Z,1010.70
2023-05-02T08:03:42.918Z,1010.71
2023-05-02T08:04:42.981Z,1010.68
2023-05-02T08:05:43.258Z,1010.72
2023-05-02T08:06:43.598Z,1010.66
2023-05-02T08:07:42.805Z,1010.73
2023-05-02T08:08:43.193Z,1010.81
2023-05-02T08:09:43.497Z,1010.88
2023-05-02T08:10:42.777Z,1010.94
2023-05-02T08:11:43.085Z,1010.91
2023-05-02T08:12:43.462Z,1011.00
2023-05-02T08:13:42.703Z,1011.02
2023-05-02T08:14:43.028Z,1011.04
2023-05-02T08:15:43.366Z,1011.04
2023-05-02T08:16:44.132Z,1011.12
2023-05-02T08:17:42.798Z,1011.18
2023-05-02T08:18:42.810Z,1011.29
2023-05-02T08:19:42.655Z,1011.25
2023-05-02T08:20:42.700Z,1011.27
2023-05-02T08:21:42.743Z,1011.37
2023-05-02T08:22:43.025Z,1011.39
2023-05-02T08:23:42.800Z,1011.42
2023-05-02T08:24:43.131Z,1011.41
2023-05-02T08:25:42.911Z,1011.47
2023-05-02T08:26:42.693Z,1011.45
2023-05-02T08:27:43.156Z,1011.51
2023-05-02T08:28:43.052Z,1011.51
2023-05-02T08:29:42.619Z,1011.52
2023-05-02T08:30:42.673Z,1011.60
2023-05-02T08:31:43.245Z,1011.57
2023-05-02T08:32:43.269Z,1011.55
2023-05-02T08:33:42.748Z,1011.59
2023-05-02T08:34:42.658Z,1011.58
2023-05-02T08:35:43.040Z,1011.61
2023-05-02T08:36:42.769Z,1011.62
2023-05-02T08:37:42.622Z,1011.72
2023-05-02T08:38:43.415Z,1011.67
2023-05-02T08:39:42.690Z,1011.71
2023-05-02T08:40:43.396Z,1011.77
2023-05-02T08:41:43.326Z,1011.80
2023-05-02T08:42:42.612Z,1011.80
2023-05-02T08:43:42.929Z,1011.82
2023-05-02T08:44:42.498Z,1011.80
2023-05-02T08:45:42.520Z,1011.85
2023-05-02T08:46:42.523Z,1011.90
2023-05-02T08:47:43.945Z,1011.90
2023-05-02T08:48:42.457Z,1011.87
2023-05-02T08:49:42.712Z,1011.90
2023-05-02T08:50:42.793Z,1011.91
2023-05-02T08:51:42.831Z,1011.93
2023-05-02T08:52:42.458Z,1011.96
2023-05-02T08:53:42.936Z,1011.95
2023-05-02T08:54:43.008Z,1011.95
2023-05-02T08:55:42.975Z,1011.98
2023-05-02T08:56:42.440Z,1012.06
2023-05-02T08:57:42.457Z,1011.98
2023-05-02T08:58:42.553Z,1012.04
2023-05-02T08:59:42.851Z,1012.07
2023-05-02T09:00:42.532Z,1012.10
2023-05-02T09:01:42.469Z,1012.13
2023-05-02T09:02:42.563Z,1012.14
2023-05-02T09:03:43.116Z,1012.10
2023-05-02T09:04:43.890Z,1012.21
2023-05-02T09:05:42.371Z,1012.17
2023-05-02T09:06:42.413Z,1012.19
2023-05-02T09:07:42.370Z,1012.21
2023-05-02T09:08:42.603Z,1012.26
2023-05-02T09:09:42.389Z,1012.35
2023-05-02T09:10:42.409Z,1012.26
2023-05-02T09:11:42.423Z,1012.33
2023-05-02T09:12:42.292Z,1012.28
2023-05-02T09:13:42.642Z,1012.25
2023-05-02T09:14:42.388Z,1012.30
2023-05-02T09:15:42.454Z,1012.30
2023-05-02T09:16:42.352Z,1012.31
2023-05-02T09:17:43.866Z,1012.28
2023-05-02T09:18:42.293Z,1012.26
2023-05-02T09:19:42.254Z,1012.35
2023-05-02T09:20:42.317Z,1012.34
2023-05-02T09:21:42.329Z,1012.38
2023-05-02T09:22:42.381Z,1012.34
2023-05-02T09:23:42.230Z,1012.36
2023-05-02T09:24:42.261Z,1012.39
2023-05-02T09:25:42.429Z,1012.43
2023-05-02T09:26:42.486Z,1012.46
2023-05-02T09:27:42.192Z,1012.47
2023-05-02T09:28:42.667Z,1012.51
2023-05-02T09:29:42.723Z,1012.61
2023-05-02T09:30:42.397Z,1012.66
2023-05-02T09:32:42.738Z,1012.70
2023-05-02T09:33:42.287Z,1012.69
2023-05-02T09:34:42.275Z,1012.70
2023-05-02T09:35:42.735Z,1012.74
2023-05-02T09:36:42.207Z,1012.76
2023-05-02T09:37:42.142Z,1012.74
2023-05-02T09:38:42.775Z,1012.77
2023-05-02T09:39:42.227Z,1012.77
2023-05-02T09:40:42.451Z,1012.76
2023-05-02T09:41:42.102Z,1012.86
2023-05-02T09:42:42.165Z,1012.83
2023-05-02T09:43:42.141Z,1012.84
2023-05-02T09:44:42.137Z,1012.87
2023-05-02T09:45:42.289Z,1012.84
2023-05-02T09:46:42.356Z,1012.80
2023-05-02T09:47:43.614Z,1012.81
2023-05-02T09:48:42.188Z,1012.90
2023-05-02T09:49:42.217Z,1012.91
2023-05-02T09:50:42.215Z,1012.91
2023-05-02T09:51:42.219Z,1012.88
2023-05-02T09:52:42.067Z,1012.88
2023-05-02T09:53:42.262Z,1012.92
2023-05-02T09:54:42.269Z,1012.94
2023-05-02T09:55:43.494Z,1012.89
2023-05-02T09:56:42.034Z,1012.89
2023-05-02T09:57:42.317Z,1012.82
2023-05-02T09:58:41.999Z,1012.87
2023-05-02T09:59:41.984Z,1012.97
2023-05-02T10:00:42.021Z,1012.95
2023-05-02T10:01:42.515Z,1012.98
2023-05-02T10:02:41.971Z,1013.02
2023-05-02T10:03:42.012Z,1013.00
2023-05-02T10:04:42.116Z,1013.00
2023-05-02T10:05:42.144Z,1013.01
2023-05-02T10:06:42.461Z,1013.04
2023-05-02T10:07:42.250Z,1013.05
2023-05-02T10:08:42.046Z,1012.99
2023-05-02T10:09:42.381Z,1013.03
2023-05-02T10:10:41.931Z,1013.00
2023-05-02T10:11:41.977Z,1013.00
2023-05-02T10:12:42.036Z,1013.01
2023-05-02T10:13:41.893Z,1013.08
2023-05-02T10:14:41.913Z,1013.01
2023-05-02T10:15:41.936Z,1013.01
2023-05-02T10:16:41.871Z,1013.07
2023-05-02T10:17:41.856Z,1013.07
2023-05-02T10:18:41.882Z,1013.07
2023-05-02T10:19:41.899Z,1013.07
2023-05-02T10:20:41.893Z,1013.07
2023-05-02T10:21:42.009Z,1013.14
2023-05-02T10:22:41.949Z,1013.17
2023-05-02T10:23:42.083Z,1013.12
2023-05-02T10:24:41.969Z,1013.09
2023-05-02T10:25:42.198Z,1013.19
2023-05-02T10:26:42.206Z,1013.18
2023-05-02T10:27:41.915Z,1013.24
2023-05-02T10:28:42.208Z,1013.15
2023-05-02T10:29:42.355Z,1013.16
2023-05-02T10:30:41.783Z,1013.16
2023-05-02T10:31:42.955Z,1013.14
2023-05-02T10:32:41.826Z,1013.12
2023-05-02T10:33:41.770Z,1013.16
2023-05-02T10:34:43.210Z,1013.17
2023-05-02T10:35:41.820Z,1013.11
2023-05-02T10:36:41.835Z,1013.11
2023-05-02T10:37:42.637Z,1013.15
2023-05-02T10:38:41.876Z,1013.19
2023-05-02T10:39:41.736Z,1013.08
2023-05-02T10:40:41.785Z,1013.16
2023-05-02T10:41:41.735Z,1013.18
2023-05-02T10:42:41.704Z,1013.14
2023-05-02T10:43:41.688Z,1013.18
2023-05-02T10:44:41.951Z,1013.18
2023-05-02T10:45:42.032Z,1013.19
2023-05-02T10:46:41.835Z,1013.16
2023-05-02T10:47:42.057Z,1013.18
2023-05-02T10:48:41.993Z,1013.16
2023-05-02T10:49:41.646Z,1013.19
2023-05-02T10:50:41.966Z,1013.15
2023-05-02T10:51:42.052Z,1013.13
2023-05-02T10:52:41.887Z,1013.10
2023-05-02T10:53:41.883Z,1013.12
2023-05-02T10:54:42.063Z,1013.10
2023-05-02T10:55:41.605Z,1013.08
2023-05-02T10:56:41.806Z,1013.14
2023-05-02T10:57:41.628Z,1013.17
2023-05-02T10:58:41.591Z,1013.12
2023-05-02T10:59:41.728Z,1013.10
2023-05-02T11:00:42.091Z,1013.07
2023-05-02T11:01:42.175Z,1013.11
2023-05-02T11:02:41.756Z,1013.00
2023-05-02T11:03:43.010Z,1013.08
2023-05-02T11:04:42.202Z,1013.06
2023-05-02T11:05:41.522Z,1013.11
2023-05-02T11:06:41.929Z,1013.10
2023-05-02T11:07:41.544Z,1013.09
2023-05-02T11:08:41.500Z,1013.11
2023-05-02T11:09:41.566Z,1013.09
2023-05-02T11:10:41.492Z,1013.15
2023-05-02T11:11:41.652Z,1013.06
2023-05-02T11:12:41.489Z,1013.12
2023-05-02T11:13:41.762Z,1013.19
2023-05-02T11:14:41.822Z,1013.12
2023-05-02T11:15:41.646Z,1013.15
2023-05-02T11:16:41.509Z,1013.10
2023-05-02T11:17:41.551Z,1013.08
2023-05-02T11:18:41.471Z,1013.11
2023-05-02T11:19:41.469Z,1013.09
2023-05-02T11:20:41.467Z,1013.18
2023-05-02T11:21:41.513Z,1013.20
2023-05-02T11:22:42.454Z,1013.19
2023-05-02T11:23:41.553Z,1013.22
2023-05-02T11:24:41.443Z,1013.17
2023-05-02T11:25:41.571Z,1013.21
2023-05-02T11:26:41.604Z,1013.21
2023-05-02T11:27:41.421Z,1013.15
2023-05-02T11:28:42.834Z,1013.16
2023-05-02T11:29:41.670Z,1013.19
2023-05-02T11:30:41.498Z,1013.23
2023-05-02T11:31:41.589Z,1013.23
2023-05-02T11:32:41.748Z,1013.19
2023-05-02T11:33:42.064Z,1013.18
2023-05-02T11:34:41.454Z,1013.22
2023-05-02T11:35:41.344Z,1013.20
2023-05-02T11:36:42.136Z,1013.18
2023-05-02T11:37:41.840Z,1013.19
2023-05-02T11:38:41.290Z,1013.25
2023-05-02T11:41:07.526Z,1013.23
2023-05-02T11:42:07.441Z,1013.26
2023-05-02T11:43:07.606Z,1013.28
2023-05-02T11:44:07.563Z,1013.29
2023-05-02T11:45:07.705Z,1013.33
2023-05-02T11:46:07.386Z,1013.31
2023-05-02T11:47:07.379Z,1013.35
2023-05-02T11:48:07.637Z,1013.38
2023-05-02T11:49:09.205Z,1013.42
2023-05-02T11:50:07.823Z,1013.36
2023-05-02T11:51:07.532Z,1013.41
2023-05-02T11:52:07.962Z,1013.50
2023-05-02T11:53:07.949Z,1013.46
2023-05-02T11:54:07.743Z,1013.48
2023-05-02T11:55:09.714Z,1013.47
2023-05-02T11:56:08.129Z,1013.48
2023-05-02T11:57:07.135Z,1013.48
2023-05-02T11:58:07.169Z,1013.42
2023-05-02T11:59:07.230Z,1013.46
2023-05-02T12:00:07.259Z,1013.37
2023-05-02T12:01:08.241Z,1013.42
2023-05-02T12:02:07.447Z,1013.45
2023-05-02T12:03:07.517Z,1013.49
2023-05-02T12:04:07.748Z,1013.50
2023-05-02T12:05:07.220Z,1013.45
2023-05-02T12:06:07.658Z,1013.44
2023-05-02T12:07:08.087Z,1013.50
2023-05-02T12:08:07.206Z,1013.45